Time;durP1;ratioP1;P1;durP2;ratioP2;P2;SDS_P1;SDS_P2;PMS_P1;PMS_P2;Temp;Humidity;BMP_temperature;BMP_pressure;BME280_temperature;BME280_humidity;BME280_pressure;Samples;Min_cycle;Max_cycle;Signal;HPM_P1;HPM_P2
2022/01/24 00:03:21;;;;;;;131.97;51.00;;;;;;;-3.92;100.00;102544.28;10549634;28;20219;-67
2022/01/24 00:08:24;;;;;;;120.23;49.37;;;;;;;-4.00;100.00;102555.44;10549391;28;20513;-70
2022/01/24 00:14:14;;;;;;;120.40;49.53;;;;;;;-3.89;100.00;102567.34;10549149;28;20188;-67
2022/01/24 00:29:47;;;;;;;121.93;51.07;;;;;;;-3.73;100.00;102557.72;10548596;28;20215;-70
2022/01/24 00:34:51;;;;;;;121.03;50.67;;;;;;;-3.83;100.00;102562.81;10548403;28;20574;-72
2022/01/24 00:39:54;;;;;;;115.07;48.10;;;;;;;-3.72;100.00;102583.22;10548160;28;20639;-69
2022/01/24 00:45:07;;;;;;;112.27;46.50;;;;;;;-3.66;100.00;102577.75;10548091;28;20222;-70
2022/01/24 00:55:33;;;;;;;101.53;44.17;;;;;;;-3.53;100.00;102562.75;10547568;28;20222;-70
2022/01/24 01:00:37;;;;;;;115.90;47.87;;;;;;;-3.57;100.00;102570.88;10547356;28;20231;-70
2022/01/24 01:06:03;;;;;;;120.73;49.07;;;;;;;-3.52;100.00;102570.47;10546978;28;20649;-71
2022/01/24 01:21:51;;;;;;;119.70;50.43;;;;;;;-3.62;100.00;102567.97;10546456;28;20314;-72
2022/01/24 01:27:00;;;;;;;125.83;47.53;;;;;;;-3.61;100.00;102564.66;10546186;28;20211;-70
2022/01/24 01:32:13;;;;;;;127.53;50.63;;;;;;;-3.55;100.00;102571.88;10545771;28;20223;-70
2022/01/24 01:53:48;;;;;;;113.53;44.07;;;;;;;-3.44;100.00;102553.34;10545395;28;20674;-68
2022/01/24 01:58:51;;;;;;;114.17;43.87;;;;;;;-3.50;100.00;102552.84;10544987;28;20612;-71
2022/01/24 02:03:57;;;;;;;111.40;43.33;;;;;;;-3.42;100.00;102559.44;10544685;28;20220;-71
2022/01/24 02:09:05;;;;;;;106.80;42.90;;;;;;;-3.50;100.00;102568.06;10544444;28;20679;-70
2022/01/24 02:14:13;;;;;;;106.10;41.63;;;;;;;-3.46;100.00;102574.28;10544840;28;20227;-69
2022/01/24 02:19:28;;;;;;;101.40;39.43;;;;;;;-3.43;100.00;102562.72;10543781;28;20231;-69
2022/01/24 02:24:41;;;;;;;100.97;39.17;;;;;;;-3.41;100.00;102561.19;10543991;28;20211;-68
2022/01/24 02:29:52;;;;;;;105.57;40.47;;;;;;;-3.43;100.00;102554.25;10544274;28;20688;-68
2022/01/24 02:34:55;;;;;;;96.17;38.90;;;;;;;-3.35;100.00;102555.75;10543916;28;20238;-67
2022/01/24 02:40:05;;;;;;;93.23;37.20;;;;;;;-3.40;100.00;102555.38;10543504;28;20559;-65
2022/01/24 02:50:50;;;;;;;89.83;35.50;;;;;;;-3.32;100.00;102553.44;10543277;28;20302;-66
2022/01/24 02:55:54;;;;;;;86.50;34.00;;;;;;;-3.32;100.00;102558.50;10543082;28;20211;-69
2022/01/24 03:00:58;;;;;;;82.07;33.67;;;;;;;-3.34;100.00;102557.50;10542943;28;20225;-65
2022/01/24 03:06:02;;;;;;;90.90;34.60;;;;;;;-3.34;100.00;102563.47;10542796;28;20209;-69
2022/01/24 03:11:07;;;;;;;84.73;33.73;;;;;;;-3.34;100.00;102563.47;10542518;28;20203;-64
2022/01/24 03:16:10;;;;;;;80.70;31.60;;;;;;;-3.32;100.00;102543.28;10542674;28;20191;-68
2022/01/24 03:21:13;;;;;;;86.03;34.33;;;;;;;-3.32;100.00;102554.34;10542254;28;20231;-69
2022/01/24 03:26:18;;;;;;;78.47;31.93;;;;;;;-3.22;100.00;102550.88;10542425;28;20283;-65
2022/01/24 03:31:21;;;;;;;73.90;31.13;;;;;;;-3.29;100.00;102556.22;10546218;28;20215;-66
2022/01/24 03:36:24;;;;;;;81.47;33.70;;;;;;;-3.18;100.00;102553.78;10550763;28;20195;-66
2022/01/24 03:41:29;;;;;;;83.20;32.77;;;;;;;-3.17;100.00;102547.94;10550455;28;20724;-64
2022/01/24 03:46:47;;;;;;;91.10;33.37;;;;;;;-3.21;100.00;102542.50;10550575;28;20211;-63
2022/01/24 03:51:50;;;;;;;75.17;30.27;;;;;;;-3.17;100.00;102555.53;10550224;28;20230;-63
2022/01/24 03:56:55;;;;;;;70.13;29.93;;;;;;;-3.08;100.00;102541.06;10549697;28;20306;-67
2022/01/24 04:01:58;;;;;;;73.40;29.90;;;;;;;-3.04;100.00;102547.25;10549763;28;20687;-65
2022/01/24 04:07:05;;;;;;;77.13;30.43;;;;;;;-3.03;100.00;102533.78;10549591;28;20225;-67
2022/01/24 04:12:11;;;;;;;67.50;28.63;;;;;;;-2.94;100.00;102545.56;10549467;28;20203;-64
2022/01/24 04:17:24;;;;;;;72.73;27.90;;;;;;;-2.91;100.00;102544.91;10548688;28;20238;-65
2022/01/24 04:22:32;;;;;;;68.50;27.77;;;;;;;-2.82;100.00;102543.09;10549369;28;20237;-70
2022/01/24 04:27:37;;;;;;;75.13;28.33;;;;;;;-2.90;100.00;102557.72;10548851;28;20274;-65
2022/01/24 04:32:40;;;;;;;63.47;26.73;;;;;;;-2.88;100.00;102550.25;10548845;28;20693;-65
2022/01/24 04:37:43;;;;;;;63.20;26.73;;;;;;;-2.81;100.00;102553.38;10548699;28;20512;-65
2022/01/24 04:42:54;;;;;;;60.20;26.03;;;;;;;-2.81;100.00;102555.91;10547692;28;20648;-65
2022/01/24 04:53:42;;;;;;;70.27;27.00;;;;;;;-2.76;100.00;102557.16;10547968;28;20544;-66
2022/01/24 04:58:46;;;;;;;72.43;28.00;;;;;;;-2.77;100.00;102560.47;10499930;28;20200;-68
2022/01/24 05:03:49;;;;;;;62.53;27.40;;;;;;;-2.75;100.00;102571.63;10463924;28;20224;-66
2022/01/24 05:08:53;;;;;;;72.23;28.90;;;;;;;-2.91;100.00;102573.72;10463797;28;20230;-65
2022/01/24 05:24:40;;;;;;;68.13;28.83;;;;;;;-2.95;100.00;102584.41;10463514;28;20224;-66
2022/01/24 05:29:44;;;;;;;63.63;27.80;;;;;;;-2.96;100.00;102580.09;10462911;28;20663;-66
2022/01/24 05:34:48;;;;;;;63.60;26.23;;;;;;;-2.92;100.00;102584.69;10462903;28;20231;-66
2022/01/24 05:39:51;;;;;;;68.63;29.07;;;;;;;-2.99;100.00;102577.34;10462554;28;20236;-66
2022/01/24 05:44:58;;;;;;;62.13;27.03;;;;;;;-2.93;100.00;102585.41;10462567;28;20231;-65
2022/01/24 05:50:01;;;;;;;59.57;26.03;;;;;;;-2.96;100.00;102589.38;10462361;28;20247;-66
2022/01/24 05:55:06;;;;;;;59.43;25.47;;;;;;;-2.96;100.00;102597.88;10461030;28;20220;-66
2022/01/24 06:00:13;;;;;;;58.50;25.33;;;;;;;-2.94;100.00;102595.47;10480573;28;20287;-66
2022/01/24 06:05:16;;;;;;;63.83;24.73;;;;;;;-2.92;100.00;102604.09;10499292;28;20212;-65
2022/01/24 06:10:20;;;;;;;60.27;25.73;;;;;;;-2.89;100.00;102605.22;10499329;28;20200;-66
2022/01/24 06:15:24;;;;;;;57.80;24.83;;;;;;;-2.92;100.00;102606.63;10499587;28;20192;-69
2022/01/24 06:20:27;;;;;;;66.40;26.43;;;;;;;-2.92;100.00;102599.03;10494873;28;20324;-64
2022/01/24 06:25:31;;;;;;;60.53;27.70;;;;;;;-2.92;100.00;102597.38;10498442;28;20222;-67
2022/01/24 06:30:35;;;;;;;63.88;28.23;;;;;;;-2.89;100.00;102599.25;10498154;28;20419;-69
2022/01/24 06:35:38;;;;;;;55.93;24.83;;;;;;;-2.77;100.00;102592.59;10498705;28;20198;-68
2022/01/24 06:40:42;;;;;;;54.10;24.17;;;;;;;-2.75;100.00;102594.50;10498426;28;20206;-67
2022/01/24 06:45:47;;;;;;;58.37;24.73;;;;;;;-2.72;100.00;102592.19;10498015;28;20212;-66
2022/01/24 06:50:51;;;;;;;52.90;24.47;;;;;;;-2.77;100.00;102585.88;10497418;28;20242;-65
2022/01/24 06:55:54;;;;;;;59.00;25.73;;;;;;;-2.82;100.00;102577.00;10497470;28;20642;-66
2022/01/24 07:00:59;;;;;;;63.80;23.60;;;;;;;-2.65;100.00;102597.00;10175629;27;10000158;-67
2022/01/24 07:06:04;;;;;;;48.63;22.37;;;;;;;-2.72;99.13;102594.75;10498700;28;20192;-64
2022/01/24 07:11:07;;;;;;;54.97;23.97;;;;;;;-2.69;98.91;102600.06;10497288;28;20325;-67
2022/01/24 07:16:13;;;;;;;53.47;23.07;;;;;;;-2.67;99.29;102602.69;10497031;28;20202;-65
2022/01/24 07:21:16;;;;;;;50.77;23.27;;;;;;;-2.63;99.59;102597.09;10498018;28;20563;-67
2022/01/24 07:26:19;;;;;;;53.13;22.83;;;;;;;-2.54;100.00;102598.69;10496727;28;20689;-62
2022/01/24 07:31:24;;;;;;;55.03;22.73;;;;;;;-2.53;99.33;102597.03;10496460;28;20227;-67
2022/01/24 07:36:27;;;;;;;57.47;23.97;;;;;;;-2.55;99.16;102601.13;10496825;28;20219;-63
2022/01/24 07:41:33;;;;;;;48.93;23.30;;;;;;;-2.44;98.43;102603.75;10496158;28;20716;-65
2022/01/24 07:46:38;;;;;;;59.90;25.50;;;;;;;-2.46;96.69;102607.81;10496514;28;20295;-66
2022/01/24 07:51:41;;;;;;;52.60;23.47;;;;;;;-2.46;96.71;102618.00;10496481;28;20228;-65
2022/01/24 07:56:45;;;;;;;50.87;22.27;;;;;;;-2.45;95.91;102612.13;10496303;28;20212;-66
2022/01/24 08:01:50;;;;;;;57.13;25.67;;;;;;;-2.33;96.02;102598.59;10533087;28;20239;-64
2022/01/24 08:06:54;;;;;;;61.53;26.07;;;;;;;-2.26;95.76;102599.16;10497378;28;20212;-68
2022/01/24 08:11:57;;;;;;;59.53;25.60;;;;;;;-2.15;94.98;102594.91;10496369;28;20222;-69
2022/01/24 08:17:03;;;;;;;51.20;22.93;;;;;;;-2.13;95.36;102590.81;10498618;28;20238;-65
2022/01/24 08:22:06;;;;;;;55.50;22.70;;;;;;;-1.97;95.34;102604.84;10503623;28;20564;-65
2022/01/24 08:27:15;;;;;;;49.33;23.20;;;;;;;-1.80;93.56;102595.91;10503251;28;20224;-66
2022/01/24 08:32:22;;;;;;;53.37;23.20;;;;;;;-1.72;95.12;102589.72;10503245;28;20318;-68
2022/01/24 08:37:26;;;;;;;48.23;20.23;;;;;;;-1.62;93.46;102585.44;10502851;28;20222;-68
2022/01/24 08:42:41;;;;;;;45.07;19.50;;;;;;;-1.62;91.65;102589.63;10503245;28;20239;-71
2022/01/24 08:47:50;;;;;;;46.90;20.13;;;;;;;-1.50;90.54;102585.47;10502115;28;20557;-67
2022/01/24 08:52:59;;;;;;;46.57;20.00;;;;;;;-1.35;89.87;102584.03;10502384;28;20231;-69
2022/01/24 08:58:04;;;;;;;47.77;21.17;;;;;;;-1.35;88.02;102577.28;10471469;28;20676;-65
2022/01/24 09:03:09;;;;;;;47.03;19.97;;;;;;;-1.30;88.49;102578.53;10543003;28;20305;-64
2022/01/24 09:08:13;;;;;;;52.17;19.73;;;;;;;-0.96;89.59;102576.72;10460780;28;20221;-64
2022/01/24 09:13:18;;;;;;;44.77;17.53;;;;;;;-1.01;85.99;102570.41;10461045;28;20221;-63
2022/01/24 09:18:23;;;;;;;38.17;17.80;;;;;;;-1.06;85.83;102563.22;10460247;28;20259;-67
2022/01/24 09:23:26;;;;;;;43.90;18.03;;;;;;;-0.91;86.68;102552.44;10460738;28;20654;-64
2022/01/24 09:28:30;;;;;;;35.83;17.20;;;;;;;-0.79;85.62;102566.03;10459483;28;20555;-63
2022/01/24 09:33:34;;;;;;;41.03;16.97;;;;;;;-0.71;84.17;102561.50;10459565;28;20244;-63
2022/01/24 09:38:37;;;;;;;41.03;17.30;;;;;;;-0.67;83.64;102563.47;10500523;28;20219;-67
2022/01/24 09:43:44;;;;;;;41.17;17.67;;;;;;;-0.63;82.91;102556.16;10500073;28;20902;-67
2022/01/24 09:48:49;;;;;;;42.80;17.73;;;;;;;-0.66;82.08;102544.84;10458923;28;20318;-63
2022/01/24 09:53:53;;;;;;;44.57;17.87;;;;;;;-0.60;82.15;102540.16;10459997;28;20196;-66
2022/01/24 09:58:57;;;;;;;41.13;15.70;;;;;;;-0.35;82.79;102543.63;10499504;28;20307;-62
2022/01/24 10:04:10;;;;;;;42.37;15.57;;;;;;;-0.21;80.60;102545.47;10510040;28;20219;-67
2022/01/24 10:09:14;;;;;;;37.90;15.50;;;;;;;-0.21;80.02;102548.88;10457954;28;20609;-69
2022/01/24 10:20:16;;;;;;;39.37;16.00;;;;;;;-0.18;79.04;102538.91;10499233;28;20277;-66
2022/01/24 10:25:20;;;;;;;32.87;14.97;;;;;;;-0.08;78.23;102531.09;10498298;28;20289;-67
2022/01/24 10:30:28;;;;;;;36.20;16.10;;;;;;;-0.07;77.86;102521.78;10498927;28;20228;-66
2022/01/24 10:35:36;;;;;;;35.63;14.83;;;;;;;-0.10;77.31;102521.53;10497970;28;20331;-65
2022/01/24 10:40:48;;;;;;;29.27;13.43;;;;;;;0.03;77.64;102515.59;10497128;28;20231;-68
2022/01/24 10:45:53;;;;;;;40.13;12.87;;;;;;;0.23;76.25;102516.13;10498484;28;20224;-67
2022/01/24 10:51:08;;;;;;;33.70;13.37;;;;;;;0.15;76.12;102506.19;10498225;28;20223;-64
2022/01/24 10:56:32;;;;;;;28.70;13.10;;;;;;;0.20;75.30;102507.38;10497792;28;20220;-68
2022/01/24 11:01:35;;;;;;;33.13;12.70;;;;;;;0.29;75.50;102498.66;10532640;28;20294;-66
2022/01/24 11:06:42;;;;;;;30.23;13.53;;;;;;;0.37;74.84;102504.25;10524369;28;20615;-62
2022/01/24 11:11:46;;;;;;;34.03;13.53;;;;;;;0.48;74.71;102491.41;10497618;28;20230;-66
2022/01/24 11:16:50;;;;;;;34.27;14.33;;;;;;;0.69;74.46;102476.56;10496795;28;20247;-65
2022/01/24 11:21:56;;;;;;;30.67;13.57;;;;;;;0.58;74.00;102475.88;10497237;28;20216;-63
2022/01/24 11:27:00;;;;;;;38.03;13.30;;;;;;;0.61;74.08;102475.19;10497123;28;20224;-67
2022/01/24 11:32:11;;;;;;;32.60;13.93;;;;;;;0.72;74.49;102457.22;10496705;28;20228;-66
2022/01/24 11:37:32;;;;;;;28.37;13.33;;;;;;;0.78;74.27;102436.22;10496759;28;20223;-64
2022/01/24 11:42:36;;;;;;;32.50;13.33;;;;;;;0.84;74.54;102442.63;10496704;28;20299;-68
2022/01/24 11:48:15;;;;;;;30.27;13.10;;;;;;;0.90;73.97;102435.34;10496258;28;20216;-68
2022/01/24 11:53:26;;;;;;;35.07;13.30;;;;;;;1.10;74.14;102439.13;10504079;28;20251;-65
2022/01/24 11:58:30;;;;;;;29.00;13.80;;;;;;;1.07;73.86;102439.81;10507601;28;20218;-64
2022/01/24 12:03:35;;;;;;;33.93;13.47;;;;;;;1.02;73.79;102430.97;10507699;28;20243;-66
2022/01/24 12:08:42;;;;;;;31.37;13.43;;;;;;;0.94;74.71;102428.75;10507355;28;20192;-67
2022/01/24 12:13:47;;;;;;;28.57;13.90;;;;;;;1.05;74.88;102425.19;10507286;28;20220;-65
2022/01/24 12:19:00;;;;;;;28.63;13.70;;;;;;;1.04;74.34;102431.94;10506612;28;20251;-65
2022/01/24 12:24:07;;;;;;;34.47;12.30;;;;;;;1.20;74.41;102423.53;10504931;28;20315;-65
2022/01/24 12:29:17;;;;;;;29.57;13.07;;;;;;;1.20;73.96;102418.44;10153402;27;9999856;-63
2022/01/24 12:34:27;;;;;;;29.17;13.50;;;;;;;1.13;74.60;102414.63;10503250;28;20226;-65
2022/01/24 12:39:43;;;;;;;25.10;12.60;;;;;;;0.98;74.86;102405.16;10502756;28;20196;-65
2022/01/24 12:50:11;;;;;;;34.03;13.43;;;;;;;1.06;75.80;102398.81;10502303;28;20199;-67
2022/01/24 12:55:19;;;;;;;36.13;13.13;;;;;;;1.15;75.22;102397.72;10502660;28;20196;-69
2022/01/24 13:00:22;;;;;;;24.37;12.67;;;;;;;1.19;74.70;102402.19;10501970;28;20215;-66
2022/01/24 13:05:28;;;;;;;28.43;12.67;;;;;;;1.14;75.67;102401.03;10502029;28;20218;-67
2022/01/24 13:10:33;;;;;;;26.47;12.27;;;;;;;1.24;75.24;102386.25;10502232;28;20210;-65
2022/01/24 13:21:15;;;;;;;28.50;12.90;;;;;;;1.11;75.95;102380.41;10504334;28;20251;-64
2022/01/24 13:26:20;;;;;;;26.97;12.47;;;;;;;1.07;76.36;102375.88;10504701;28;20220;-65
2022/01/24 13:31:23;;;;;;;25.70;12.20;;;;;;;1.09;76.83;102378.53;10503489;28;20671;-67
2022/01/24 13:36:27;;;;;;;27.07;12.60;;;;;;;1.13;77.54;102371.16;10504155;28;20196;-67
2022/01/24 13:41:31;;;;;;;26.80;11.80;;;;;;;1.03;77.00;102373.06;10501152;28;20196;-65
2022/01/24 13:46:38;;;;;;;28.07;13.30;;;;;;;1.02;77.00;102366.16;10500184;28;20314;-65
2022/01/24 13:51:46;;;;;;;30.13;13.57;;;;;;;0.97;77.38;102367.56;10149796;27;10000628;-65
2022/01/24 13:56:52;;;;;;;29.87;13.67;;;;;;;1.04;77.77;102372.28;10500346;28;20201;-68
2022/01/24 14:01:59;;;;;;;36.97;15.63;;;;;;;0.93;78.59;102370.75;10488905;28;20284;-68
2022/01/24 14:07:05;;;;;;;34.57;14.20;;;;;;;0.82;78.23;102367.53;10496528;28;20546;-66
2022/01/24 14:12:12;;;;;;;28.33;14.17;;;;;;;0.87;78.58;102378.03;10495152;28;20203;-66
2022/01/24 14:22:43;;;;;;;33.13;14.97;;;;;;;0.77;79.11;102380.81;10498723;28;20287;-64
2022/01/24 14:27:49;;;;;;;29.37;12.87;;;;;;;0.82;79.13;102372.66;10498831;28;20561;-66
2022/01/24 14:33:09;;;;;;;29.23;13.97;;;;;;;0.83;78.95;102359.06;10481824;28;20350;-66
2022/01/24 14:38:17;;;;;;;32.40;12.83;;;;;;;0.84;78.98;102360.88;10457084;28;20216;-65
2022/01/24 14:48:48;;;;;;;32.03;14.80;;;;;;;0.88;79.15;102367.03;10475701;28;20226;-65
2022/01/24 14:53:52;;;;;;;41.70;18.60;;;;;;;0.90;78.39;102362.88;10498516;28;20220;-73
2022/01/24 14:58:59;;;;;;;31.47;14.67;;;;;;;0.82;78.99;102359.00;10497553;28;20200;-65
2022/01/24 15:04:03;;;;;;;31.30;14.27;;;;;;;0.80;79.72;102355.44;10496572;28;20300;-65
2022/01/24 15:09:09;;;;;;;33.93;14.70;;;;;;;0.81;79.84;102354.69;10497264;28;20214;-66
2022/01/24 15:14:20;;;;;;;33.63;14.93;;;;;;;0.73;80.05;102351.66;10497209;28;20191;-67
2022/01/24 15:30:09;;;;;;;34.60;14.20;;;;;;;0.64;80.86;102353.63;10510128;28;20249;-65
2022/01/24 15:35:21;;;;;;;34.33;14.60;;;;;;;0.73;80.83;102346.53;10510522;28;20302;-65
2022/01/24 15:40:25;;;;;;;33.80;14.30;;;;;;;0.76;80.35;102333.94;10510107;28;20295;-65
2022/01/24 15:45:39;;;;;;;28.90;15.60;;;;;;;0.73;80.63;102348.19;10511241;28;20220;-62
2022/01/24 15:50:44;;;;;;;31.33;14.53;;;;;;;0.68;80.66;102337.72;10525787;28;20242;-67
2022/01/24 15:56:12;;;;;;;28.70;13.23;;;;;;;0.71;80.26;102335.34;10510170;28;20226;-65
2022/01/24 16:01:15;;;;;;;33.40;15.17;;;;;;;0.68;80.27;102337.72;10510056;28;20250;-67
2022/01/24 16:06:18;;;;;;;34.03;15.03;;;;;;;0.73;80.67;102336.31;10509982;28;20224;-68
2022/01/24 16:11:24;;;;;;;32.57;13.00;;;;;;;0.69;80.69;102334.34;10510232;28;20357;-64
2022/01/24 16:16:48;;;;;;;30.13;14.37;;;;;;;0.70;80.50;102330.13;10509631;28;20238;-66
2022/01/24 16:22:02;;;;;;;34.13;14.17;;;;;;;0.65;80.74;102326.44;10500981;28;20783;-66
2022/01/24 16:27:25;;;;;;;33.23;15.30;;;;;;;0.74;81.11;102332.97;10505814;28;20549;-64
2022/01/24 16:32:30;;;;;;;32.47;15.07;;;;;;;0.71;80.94;102321.66;10509765;28;20227;-65
2022/01/24 16:37:35;;;;;;;30.33;15.20;;;;;;;0.70;81.78;102313.16;10506498;28;20234;-63
2022/01/24 16:42:54;;;;;;;31.60;14.77;;;;;;;0.67;81.83;102310.41;10503217;28;20269;-65
2022/01/24 16:47:59;;;;;;;36.07;15.37;;;;;;;0.71;81.68;102306.34;10507597;28;20283;-65
2022/01/24 16:53:03;;;;;;;31.70;14.50;;;;;;;0.68;82.76;102301.06;10545107;28;20243;-64
2022/01/24 16:58:06;;;;;;;31.67;14.90;;;;;;;0.77;83.08;102294.84;10544193;28;20233;-66
2022/01/24 17:03:11;;;;;;;35.50;15.40;;;;;;;0.74;83.42;102288.66;10543942;28;20219;-65
2022/01/24 17:08:15;;;;;;;34.53;16.13;;;;;;;0.78;83.99;102291.47;10543848;28;20223;-64
2022/01/24 17:13:19;;;;;;;36.43;16.17;;;;;;;0.85;84.48;102290.16;10543533;28;20669;-66
2022/01/24 17:18:24;;;;;;;35.27;15.13;;;;;;;0.82;84.22;102295.09;10544066;28;20239;-70
2022/01/24 17:23:28;;;;;;;36.37;16.17;;;;;;;0.90;84.22;102299.00;10500880;28;20216;-69
2022/01/24 17:28:32;;;;;;;35.47;15.77;;;;;;;0.89;84.39;102292.13;10500913;28;20244;-68
2022/01/24 17:33:36;;;;;;;31.27;15.73;;;;;;;0.89;84.64;102294.69;10501520;28;20212;-70
2022/01/24 17:38:39;;;;;;;33.07;15.50;;;;;;;0.87;84.63;102278.38;10500617;28;20227;-67
2022/01/24 17:43:43;;;;;;;38.47;16.83;;;;;;;0.82;85.40;102277.22;10500721;28;20609;-70
2022/01/24 17:48:47;;;;;;;35.43;16.80;;;;;;;0.80;85.38;102271.13;10510321;28;20219;-70
2022/01/24 17:53:51;;;;;;;39.90;18.17;;;;;;;0.85;84.93;102269.72;10541853;28;20188;-68
2022/01/24 17:58:54;;;;;;;34.23;16.60;;;;;;;0.90;84.69;102263.22;10542131;28;20205;-67
2022/01/24 18:03:59;;;;;;;35.23;16.60;;;;;;;0.89;84.81;102266.56;10541773;28;20197;-66
2022/01/24 18:09:03;;;;;;;31.60;15.40;;;;;;;0.91;85.25;102263.31;10541539;28;20243;-69
2022/01/24 18:14:06;;;;;;;35.00;16.20;;;;;;;0.82;85.64;102270.44;10541203;28;20254;-67
2022/01/24 18:19:11;;;;;;;32.13;16.63;;;;;;;0.80;85.71;102266.91;10541467;28;20311;-66
2022/01/24 18:24:15;;;;;;;34.43;15.07;;;;;;;0.83;86.29;102261.06;10541050;28;20191;-67
2022/01/24 18:29:18;;;;;;;42.03;17.43;;;;;;;0.95;85.83;102259.25;10540817;28;20211;-69
2022/01/24 18:34:22;;;;;;;35.57;17.17;;;;;;;0.85;85.77;102264.63;10541024;28;20188;-66
2022/01/24 18:39:26;;;;;;;36.27;16.47;;;;;;;0.89;86.41;102251.25;10540463;28;20191;-70
2022/01/24 18:44:35;;;;;;;62.20;24.93;;;;;;;1.02;86.50;102241.81;10540296;28;20188;-66
2022/01/24 18:49:40;;;;;;;41.80;17.23;;;;;;;1.06;86.44;102246.31;10521300;28;20193;-64
2022/01/24 18:54:44;;;;;;;42.67;17.77;;;;;;;1.00;87.83;102245.94;10498094;28;20216;-66
2022/01/24 18:59:48;;;;;;;37.77;17.77;;;;;;;1.06;87.77;102237.75;10497359;28;20574;-68
2022/01/24 19:04:53;;;;;;;37.00;17.23;;;;;;;1.06;88.88;102232.66;10497765;28;20287;-67
2022/01/24 19:09:56;;;;;;;39.73;18.07;;;;;;;1.14;88.82;102227.19;10499490;28;20192;-67
2022/01/24 19:15:01;;;;;;;41.43;20.93;;;;;;;1.16;88.38;102210.25;10501003;28;20220;-67
2022/01/24 19:25:25;;;;;;;47.30;20.40;;;;;;;1.27;89.10;102203.19;10500270;28;20676;-63
2022/01/24 19:30:29;;;;;;;41.97;19.90;;;;;;;1.27;89.10;102205.75;10500755;28;20220;-68
2022/01/24 19:35:34;;;;;;;35.13;17.57;;;;;;;1.34;89.15;102204.41;10499753;28;20299;-70
2022/01/24 19:40:37;;;;;;;43.03;19.00;;;;;;;1.39;89.10;102208.13;10497577;28;20288;-64
2022/01/24 19:45:41;;;;;;;48.33;20.93;;;;;;;1.22;90.69;102196.94;10496851;28;20220;-66
2022/01/24 19:50:46;;;;;;;45.10;20.37;;;;;;;1.28;91.13;102197.28;10496698;28;20215;-65
2022/01/24 19:55:56;;;;;;;49.93;22.63;;;;;;;1.19;93.25;102192.53;10497038;28;20232;-69
2022/01/24 20:01:03;;;;;;;45.57;22.43;;;;;;;1.28;92.58;102179.38;10496485;28;20218;-65
2022/01/24 20:06:08;;;;;;;47.53;22.30;;;;;;;1.34;93.96;102179.75;10496367;28;20224;-66
2022/01/24 20:11:12;;;;;;;57.03;22.97;;;;;;;1.29;94.73;102182.81;10496502;28;20308;-64
2022/01/24 20:16:16;;;;;;;46.00;22.53;;;;;;;1.48;94.66;102191.63;10162438;27;10000456;-66
2022/01/24 20:21:20;;;;;;;77.07;35.97;;;;;;;1.29;96.11;102186.28;10546230;28;20231;-65
2022/01/24 20:26:24;;;;;;;53.40;23.97;;;;;;;1.47;96.29;102184.72;10545436;28;20231;-65
2022/01/24 20:31:27;;;;;;;46.40;23.77;;;;;;;1.39;97.17;102178.31;10545377;28;20744;-64
2022/01/24 20:36:31;;;;;;;60.37;26.43;;;;;;;1.30;99.94;102184.56;10545647;28;20218;-68
2022/01/24 20:41:36;;;;;;;56.90;27.67;;;;;;;1.31;100.00;102186.34;10545002;28;20681;-66
2022/01/24 20:46:40;;;;;;;60.57;26.23;;;;;;;1.29;100.00;102182.81;10545928;28;20231;-69
2022/01/24 20:51:46;;;;;;;61.47;28.00;;;;;;;1.29;100.00;102172.59;10545046;28;20226;-67
2022/01/24 20:56:49;;;;;;;58.17;25.90;;;;;;;1.23;100.00;102164.56;10544350;28;20215;-64
2022/01/24 21:01:53;;;;;;;60.13;28.13;;;;;;;1.18;100.00;102166.88;10544486;28;20260;-70
2022/01/24 21:06:58;;;;;;;54.33;26.20;;;;;;;1.18;100.00;102162.66;10543919;28;20306;-69
2022/01/24 21:12:17;;;;;;;58.77;29.50;;;;;;;1.23;100.00;102160.34;10544362;28;20298;-65
2022/01/24 21:17:20;;;;;;;57.20;26.93;;;;;;;1.36;100.00;102162.81;10524317;28;20247;-62
2022/01/24 21:22:24;;;;;;;59.83;28.37;;;;;;;1.40;100.00;102149.38;10501083;28;20212;-64
2022/01/24 21:27:28;;;;;;;61.30;28.97;;;;;;;1.49;100.00;102139.66;10501324;28;20224;-65
2022/01/24 21:32:31;;;;;;;68.57;31.97;;;;;;;1.54;100.00;102135.66;10501500;28;20216;-64
2022/01/24 21:37:36;;;;;;;64.60;31.43;;;;;;;1.57;100.00;102120.47;10501358;28;20224;-66
2022/01/24 21:42:39;;;;;;;57.40;30.13;;;;;;;1.41;100.00;102115.34;10500871;28;20226;-67
2022/01/24 21:47:43;;;;;;;59.57;29.07;;;;;;;1.48;100.00;102104.66;10499958;28;20319;-72
2022/01/24 21:52:51;;;;;;;56.00;26.57;;;;;;;1.60;100.00;102095.06;10501084;28;20266;-66
2022/01/24 21:57:57;;;;;;;65.13;28.03;;;;;;;1.64;100.00;102096.13;10500380;28;20306;-66
2022/01/24 22:03:03;;;;;;;57.67;28.00;;;;;;;1.62;100.00;102080.69;10499950;28;20232;-66
2022/01/24 22:13:30;;;;;;;59.80;29.00;;;;;;;1.53;100.00;102076.75;10499386;28;20218;-70
2022/01/24 22:18:33;;;;;;;62.13;29.23;;;;;;;1.70;100.00;102068.28;10499007;28;20242;-64
2022/01/24 22:23:43;;;;;;;61.77;30.07;;;;;;;1.69;100.00;102071.66;10517343;28;20208;-66
2022/01/24 22:28:48;;;;;;;62.87;32.57;;;;;;;1.43;100.00;102065.16;10540870;28;20235;-67
2022/01/24 22:33:52;;;;;;;68.83;30.30;;;;;;;1.47;100.00;102067.06;10540534;28;20302;-66
2022/01/24 22:38:58;;;;;;;62.47;27.70;;;;;;;1.73;100.00;102059.09;10540399;28;20225;-65
2022/01/24 22:44:01;;;;;;;60.60;31.90;;;;;;;1.71;100.00;102060.69;10540282;28;20211;-67
2022/01/24 22:49:05;;;;;;;71.23;34.17;;;;;;;1.60;100.00;102053.25;10540350;28;20223;-67
2022/01/24 22:54:10;;;;;;;67.00;30.70;;;;;;;1.65;100.00;102039.91;10539874;28;20310;-64
2022/01/24 22:59:13;;;;;;;63.33;28.90;;;;;;;1.81;100.00;102045.00;10539772;28;20226;-66
2022/01/24 23:04:16;;;;;;;64.50;31.43;;;;;;;1.68;100.00;102032.38;10539834;28;20306;-68
2022/01/24 23:09:41;;;;;;;63.63;28.50;;;;;;;1.80;100.00;102020.22;10539867;28;20222;-67
2022/01/24 23:20:08;;;;;;;62.13;30.20;;;;;;;1.68;100.00;102019.59;10456111;28;20689;-66
2022/01/24 23:25:14;;;;;;;70.60;35.40;;;;;;;1.63;100.00;102021.03;10455841;28;20217;-65
2022/01/24 23:30:19;;;;;;;66.00;31.03;;;;;;;1.54;100.00;102012.88;10455898;28;20387;-64
2022/01/24 23:41:01;;;;;;;63.90;28.77;;;;;;;1.72;100.00;101982.25;10455660;28;20220;-64
2022/01/24 23:46:05;;;;;;;70.80;31.80;;;;;;;1.52;100.00;101986.31;10456986;28;20307;-65
2022/01/24 23:51:08;;;;;;;70.57;32.50;;;;;;;1.52;100.00;101977.78;10463620;28;20235;-64
2022/01/24 23:56:14;;;;;;;63.83;30.33;;;;;;;1.56;100.00;101975.47;10463956;28;20223;-64
